createdAt,value
2023-11-30T00:00:16.179Z,13.63
2023-11-30T00:02:46.610Z,14.73
2023-11-30T00:05:18.727Z,14.97
2023-11-30T00:07:49.871Z,14.40
2023-11-30T00:10:22.813Z,13.30
2023-11-30T00:12:55.723Z,14.50
2023-11-30T00:15:26.028Z,13.50
2023-11-30T00:17:57.622Z,13.93
2023-11-30T00:20:27.886Z,13.23
2023-11-30T00:22:58.131Z,12.40
2023-11-30T00:25:28.656Z,12.37
2023-11-30T00:28:01.510Z,12.07
2023-11-30T00:30:31.822Z,12.43
2023-11-30T00:33:02.265Z,12.17
2023-11-30T00:35:32.530Z,11.93
2023-11-30T00:38:02.802Z,11.40
2023-11-30T00:40:33.013Z,11.77
2023-11-30T00:43:05.939Z,12.13
2023-11-30T00:45:36.432Z,10.83
2023-11-30T00:48:07.421Z,12.17
2023-11-30T00:50:37.800Z,12.17
2023-11-30T00:53:08.053Z,12.83
2023-11-30T00:55:38.306Z,12.60
2023-11-30T00:58:11.141Z,12.77
2023-11-30T01:00:41.391Z,11.77
2023-11-30T01:03:11.687Z,12.07
2023-11-30T01:05:41.993Z,11.93
2023-11-30T01:08:12.229Z,12.23
2023-11-30T01:10:50.134Z,12.40
2023-11-30T01:13:23.017Z,11.83
2023-11-30T01:15:53.310Z,12.53
2023-11-30T01:18:23.697Z,12.03
2023-11-30T01:20:54.133Z,12.70
2023-11-30T01:23:24.370Z,12.80
2023-11-30T01:25:54.595Z,11.87
2023-11-30T01:28:27.472Z,11.70
2023-11-30T01:30:57.786Z,11.43
2023-11-30T01:33:28.135Z,11.73
2023-11-30T01:35:58.432Z,11.53
2023-11-30T01:38:28.688Z,11.50
2023-11-30T01:40:58.935Z,11.53
2023-11-30T01:43:32.583Z,11.17
2023-11-30T01:46:04.382Z,11.77
2023-11-30T01:48:37.618Z,11.67
2023-11-30T01:51:12.025Z,11.30
2023-11-30T01:53:44.753Z,11.23
2023-11-30T01:56:16.383Z,11.10
2023-11-30T01:58:49.538Z,11.50
2023-11-30T02:01:20.371Z,10.77
2023-11-30T02:03:50.966Z,10.47
2023-11-30T02:06:21.498Z,10.60
2023-11-30T02:08:53.127Z,10.17
2023-11-30T02:11:23.461Z,11.30
2023-11-30T02:13:58.346Z,10.87
2023-11-30T02:16:28.600Z,10.70
2023-11-30T02:18:58.984Z,11.77
2023-11-30T02:21:29.371Z,11.57
2023-11-30T02:24:03.343Z,10.63
2023-11-30T02:26:33.713Z,10.83
2023-11-30T02:29:03.972Z,10.47
2023-11-30T02:31:34.316Z,10.13
2023-11-30T02:34:06.966Z,9.57
2023-11-30T02:36:37.188Z,9.20
2023-11-30T02:39:10.815Z,9.63
2023-11-30T02:41:41.087Z,9.63
2023-11-30T02:44:12.780Z,9.23
2023-11-30T02:46:43.084Z,9.70
2023-11-30T02:49:13.367Z,10.50
2023-11-30T02:51:46.202Z,10.00
2023-11-30T02:54:19.118Z,10.07
2023-11-30T02:56:49.386Z,11.07
2023-11-30T02:59:19.621Z,10.83
2023-11-30T03:01:53.203Z,10.17
2023-11-30T03:04:23.838Z,10.73
2023-11-30T03:06:54.182Z,9.43
2023-11-30T03:09:27.132Z,10.80
2023-11-30T03:11:57.408Z,11.53
2023-11-30T03:14:27.673Z,11.20
2023-11-30T03:16:57.898Z,11.93
2023-11-30T03:19:28.161Z,11.43
2023-11-30T03:21:58.463Z,11.53
2023-11-30T03:24:31.351Z,11.60
2023-11-30T03:27:01.631Z,11.17
2023-11-30T03:29:31.895Z,10.73
2023-11-30T03:32:02.217Z,10.80
2023-11-30T03:34:32.514Z,10.70
2023-11-30T03:37:02.928Z,10.90
2023-11-30T03:39:36.112Z,10.70
2023-11-30T03:42:06.821Z,10.40
2023-11-30T03:44:37.160Z,10.20
2023-11-30T03:47:07.924Z,10.63
2023-11-30T03:49:38.161Z,10.63
2023-11-30T03:52:09.139Z,10.23
2023-11-30T03:54:41.954Z,10.27
2023-11-30T03:57:12.303Z,10.37
2023-11-30T03:59:43.719Z,11.17
2023-11-30T04:02:14.143Z,10.37
2023-11-30T04:04:44.608Z,10.40
2023-11-30T04:07:15.158Z,9.57
2023-11-30T04:09:48.786Z,9.90
2023-11-30T04:12:19.085Z,9.80
2023-11-30T04:14:49.404Z,9.57
2023-11-30T04:17:19.671Z,9.00
2023-11-30T04:19:49.924Z,8.70
2023-11-30T04:22:20.714Z,9.47
2023-11-30T04:24:53.591Z,8.77
2023-11-30T04:27:23.826Z,9.23
2023-11-30T04:29:54.087Z,9.00
2023-11-30T04:32:24.429Z,8.77
2023-11-30T04:34:54.710Z,7.67
2023-11-30T04:37:24.933Z,8.03
2023-11-30T04:39:59.010Z,8.03
2023-11-30T04:42:29.351Z,8.90
2023-11-30T04:44:59.766Z,7.90
2023-11-30T04:47:30.079Z,8.20
2023-11-30T04:50:00.389Z,10.33
2023-11-30T04:52:30.652Z,8.77
2023-11-30T04:55:03.608Z,9.50
2023-11-30T04:57:33.945Z,10.37
2023-11-30T05:00:06.627Z,8.30
2023-11-30T05:02:41.715Z,8.07
2023-11-30T05:05:12.731Z,8.30
2023-11-30T05:07:42.998Z,7.17
2023-11-30T05:10:16.319Z,7.33
2023-11-30T05:12:47.316Z,8.13
2023-11-30T05:15:17.653Z,7.50
2023-11-30T05:17:47.902Z,9.00
2023-11-30T05:20:18.334Z,9.63
2023-11-30T05:22:48.554Z,7.83
2023-11-30T05:25:21.582Z,8.63
2023-11-30T05:27:54.550Z,8.40
2023-11-30T05:30:27.613Z,7.70
2023-11-30T05:32:58.113Z,7.87
2023-11-30T05:35:28.509Z,8.63
2023-11-30T05:37:58.981Z,7.70
2023-11-30T05:40:31.832Z,7.30
2023-11-30T05:43:02.130Z,9.47
2023-11-30T05:45:32.390Z,9.57
2023-11-30T05:48:02.794Z,9.80
2023-11-30T05:50:33.682Z,8.30
2023-11-30T05:53:07.666Z,9.17
2023-11-30T05:55:40.525Z,7.90
2023-11-30T05:58:10.808Z,7.83
2023-11-30T06:00:41.106Z,9.43
2023-11-30T06:03:11.408Z,9.47
2023-11-30T06:05:41.721Z,7.97
2023-11-30T06:08:14.624Z,8.13
2023-11-30T06:10:47.653Z,7.80
2023-11-30T06:13:17.963Z,7.63
2023-11-30T06:15:48.272Z,7.83
2023-11-30T06:18:18.634Z,8.20
2023-11-30T06:20:48.935Z,8.40
2023-11-30T06:23:19.242Z,8.80
2023-11-30T06:25:52.632Z,8.40
2023-11-30T06:28:22.989Z,8.17
2023-11-30T06:30:53.237Z,8.07
2023-11-30T06:33:23.480Z,7.17
2023-11-30T06:35:53.782Z,7.27
2023-11-30T06:38:24.070Z,6.80
2023-11-30T06:40:56.901Z,6.40
2023-11-30T06:43:29.673Z,6.33
2023-11-30T06:45:59.960Z,6.83
2023-11-30T06:48:30.256Z,6.30
2023-11-30T06:51:00.534Z,7.03
2023-11-30T06:53:30.822Z,7.37
2023-11-30T06:56:03.628Z,6.80
2023-11-30T06:58:33.891Z,6.93
2023-11-30T07:01:04.438Z,5.87
2023-11-30T07:03:42.567Z,6.40
2023-11-30T07:06:14.449Z,6.60
2023-11-30T07:08:44.734Z,6.30
2023-11-30T07:11:25.152Z,5.00
2023-11-30T07:13:55.404Z,5.40
2023-11-30T07:16:25.675Z,5.20
2023-11-30T07:18:55.971Z,5.37
2023-11-30T07:21:27.885Z,5.17
2023-11-30T07:23:58.385Z,4.80
2023-11-30T07:26:31.217Z,4.80
2023-11-30T07:29:01.589Z,4.23
2023-11-30T07:31:31.903Z,4.60
2023-11-30T07:34:02.294Z,4.80
2023-11-30T07:36:32.568Z,5.13
2023-11-30T07:39:02.890Z,5.40
2023-11-30T07:41:35.728Z,5.23
2023-11-30T07:44:07.078Z,6.23
2023-11-30T07:46:37.368Z,7.17
2023-11-30T07:49:07.677Z,8.77
2023-11-30T07:51:37.980Z,8.90
2023-11-30T07:54:09.581Z,12.40
2023-11-30T07:56:42.454Z,9.73
2023-11-30T07:59:14.527Z,7.80
2023-11-30T08:01:44.939Z,6.93
2023-11-30T08:04:15.344Z,8.20
2023-11-30T08:06:49.226Z,7.30
2023-11-30T08:09:19.549Z,6.90
2023-11-30T08:11:53.820Z,8.00
2023-11-30T08:14:24.170Z,6.63
2023-11-30T08:16:54.563Z,4.50
2023-11-30T08:19:24.830Z,4.27
2023-11-30T08:21:57.457Z,3.70
2023-11-30T08:24:27.732Z,4.73
2023-11-30T08:27:00.733Z,6.47
2023-11-30T08:29:31.002Z,5.93
2023-11-30T08:32:01.249Z,5.53
2023-11-30T08:34:31.810Z,7.53
2023-11-30T08:37:02.062Z,11.30
2023-11-30T08:39:32.471Z,8.00
2023-11-30T08:42:05.482Z,8.63
2023-11-30T08:44:44.274Z,11.80
2023-11-30T08:47:15.468Z,11.07
2023-11-30T08:49:53.014Z,6.97
2023-11-30T08:52:24.477Z,5.10
2023-11-30T08:54:55.313Z,5.67
2023-11-30T08:57:28.206Z,5.17
2023-11-30T08:59:59.515Z,5.67
2023-11-30T09:02:32.085Z,6.87
2023-11-30T09:05:02.670Z,7.90
2023-11-30T09:07:34.000Z,8.23
2023-11-30T09:10:05.846Z,7.80
2023-11-30T09:12:38.877Z,7.63
2023-11-30T09:15:17.318Z,7.30
2023-11-30T09:17:49.624Z,9.20
2023-11-30T09:20:21.443Z,9.00
2023-11-30T09:22:52.191Z,7.87
2023-11-30T09:25:22.585Z,9.20
2023-11-30T09:27:55.969Z,9.70
2023-11-30T09:30:28.557Z,9.07
2023-11-30T09:33:01.685Z,8.80
2023-11-30T09:35:31.891Z,12.33
2023-11-30T09:38:03.024Z,10.80
2023-11-30T09:40:35.254Z,10.13
2023-11-30T09:43:09.979Z,11.77
2023-11-30T09:45:42.515Z,10.23
2023-11-30T09:48:12.900Z,15.40
2023-11-30T09:50:43.431Z,12.20
2023-11-30T09:53:14.268Z,8.77
2023-11-30T09:55:44.695Z,8.20
2023-11-30T09:58:17.654Z,8.80
2023-11-30T10:00:47.949Z,8.80
2023-11-30T10:03:18.381Z,8.70
2023-11-30T10:05:48.656Z,9.00
2023-11-30T10:08:23.819Z,9.57
2023-11-30T10:10:54.106Z,9.10
2023-11-30T10:13:31.136Z,9.50
2023-11-30T10:16:02.109Z,9.73
2023-11-30T10:18:35.884Z,11.87
2023-11-30T10:21:06.680Z,8.83
2023-11-30T10:23:37.879Z,8.83
2023-11-30T10:26:10.705Z,8.93
2023-11-30T10:28:44.201Z,9.13
2023-11-30T10:31:19.652Z,9.47
2023-11-30T10:33:59.136Z,10.00
2023-11-30T10:36:31.478Z,9.60
2023-11-30T10:39:12.405Z,10.50
2023-11-30T10:41:53.602Z,9.70
2023-11-30T10:44:32.094Z,9.67
2023-11-30T10:47:05.843Z,10.37
2023-11-30T10:49:36.293Z,10.70
2023-11-30T10:52:09.573Z,10.30
2023-11-30T10:54:47.875Z,10.93
2023-11-30T10:57:19.492Z,11.70
2023-11-30T11:00:01.026Z,12.17
2023-11-30T11:02:40.895Z,11.53
2023-11-30T11:05:16.997Z,12.23
2023-11-30T11:07:52.458Z,11.10
2023-11-30T11:10:28.951Z,11.03
2023-11-30T11:13:04.222Z,11.60
2023-11-30T11:15:39.250Z,11.27
2023-11-30T11:18:09.549Z,11.40
2023-11-30T11:20:40.979Z,10.47
2023-11-30T11:23:14.023Z,11.47
2023-11-30T11:25:50.188Z,12.53
2023-11-30T11:28:24.474Z,11.87
2023-11-30T11:30:57.858Z,11.50
2023-11-30T11:33:35.729Z,11.20
2023-11-30T11:36:08.458Z,11.80
2023-11-30T11:38:41.081Z,11.57
2023-11-30T11:41:11.945Z,12.60
2023-11-30T11:43:43.363Z,13.10
2023-11-30T11:46:16.324Z,12.07
2023-11-30T11:48:50.133Z,13.27
2023-11-30T11:51:20.732Z,28.53
2023-11-30T11:53:51.098Z,15.83
2023-11-30T11:56:21.389Z,24.53
2023-11-30T11:58:53.856Z,46.27
2023-11-30T12:01:26.831Z,27.83
2023-11-30T12:03:58.016Z,64.10
2023-11-30T12:06:31.867Z,61.20
2023-11-30T12:09:14.303Z,60.60
2023-11-30T12:11:44.911Z,25.00
2023-11-30T12:14:15.217Z,44.40
2023-11-30T12:16:48.096Z,20.87
2023-11-30T12:19:21.362Z,18.10
2023-11-30T12:21:51.721Z,17.27
2023-11-30T12:24:23.111Z,16.37
2023-11-30T12:26:53.927Z,14.40
2023-11-30T12:29:24.154Z,16.20
2023-11-30T12:31:56.684Z,14.43
2023-11-30T12:34:27.265Z,13.23
2023-11-30T12:36:57.676Z,21.50
2023-11-30T12:39:27.982Z,14.00
2023-11-30T12:41:58.241Z,17.10
2023-11-30T12:44:28.528Z,15.10
2023-11-30T12:47:01.674Z,19.70
2023-11-30T12:49:33.582Z,34.63
2023-11-30T12:52:07.094Z,27.03
2023-11-30T12:57:40.212Z,45.40
2023-11-30T13:00:18.009Z,32.57
2023-11-30T13:02:50.889Z,19.30
2023-11-30T13:05:22.484Z,17.50
2023-11-30T13:07:55.683Z,23.00
2023-11-30T13:10:28.756Z,26.73
2023-11-30T13:12:59.095Z,18.00
2023-11-30T13:15:29.634Z,18.77
2023-11-30T13:18:02.711Z,19.07
2023-11-30T13:20:32.936Z,19.80
2023-11-30T13:23:03.188Z,16.30
2023-11-30T13:25:34.863Z,20.83
2023-11-30T13:28:06.892Z,24.80
2023-11-30T13:30:37.280Z,17.80
2023-11-30T13:33:10.299Z,18.20
2023-11-30T13:35:41.150Z,18.27
2023-11-30T13:38:11.827Z,20.37
2023-11-30T13:40:42.057Z,22.40
2023-11-30T13:43:12.341Z,18.07
2023-11-30T13:45:42.711Z,18.33
2023-11-30T13:48:42.725Z,17.47
2023-11-30T13:51:14.496Z,17.70
2023-11-30T13:53:44.742Z,21.77
2023-11-30T13:56:15.770Z,20.63
2023-11-30T13:58:46.389Z,21.87
2023-11-30T14:01:16.737Z,21.30
2023-11-30T14:03:49.776Z,21.40
2023-11-30T14:06:20.292Z,21.77
2023-11-30T14:08:50.585Z,23.53
2023-11-30T14:11:21.873Z,29.83
2023-11-30T14:13:52.300Z,24.87
2023-11-30T14:16:22.637Z,21.73
2023-11-30T14:18:56.098Z,20.50
2023-11-30T14:21:26.471Z,20.93
2023-11-30T14:24:16.006Z,35.67
2023-11-30T14:26:46.323Z,21.00
2023-11-30T14:29:17.121Z,16.87
2023-11-30T14:31:48.809Z,21.30
2023-11-30T14:34:21.716Z,17.53
2023-11-30T14:36:54.408Z,23.07
2023-11-30T14:39:30.874Z,19.63
2023-11-30T14:42:01.192Z,26.47
2023-11-30T14:44:31.908Z,24.57
2023-11-30T14:47:02.152Z,35.27
2023-11-30T14:49:35.045Z,20.17
2023-11-30T14:52:05.294Z,12.83
2023-11-30T14:54:35.597Z,13.83
2023-11-30T14:57:10.398Z,14.43
2023-11-30T14:59:41.352Z,14.67
2023-11-30T15:02:11.682Z,15.93
2023-11-30T15:04:44.640Z,16.67
2023-11-30T15:07:14.894Z,20.17
2023-11-30T15:09:46.884Z,19.60
2023-11-30T15:12:20.029Z,26.97
2023-11-30T15:14:50.342Z,15.77
2023-11-30T15:17:20.617Z,19.67
2023-11-30T15:19:55.321Z,18.50
2023-11-30T15:22:25.676Z,18.97
2023-11-30T15:24:55.968Z,19.27
2023-11-30T15:27:29.072Z,16.50
2023-11-30T15:29:59.329Z,17.40
2023-11-30T15:32:29.569Z,17.87
2023-11-30T15:35:04.197Z,17.93
2023-11-30T15:37:36.509Z,20.67
2023-11-30T15:40:10.388Z,28.73
2023-11-30T15:42:40.759Z,27.70
2023-11-30T15:45:13.934Z,20.33
2023-11-30T15:47:44.723Z,15.30
2023-11-30T15:50:18.013Z,17.37
2023-11-30T15:52:48.490Z,43.20
2023-11-30T15:55:19.065Z,17.87
2023-11-30T15:57:49.900Z,24.50
2023-11-30T16:00:21.730Z,20.03
2023-11-30T16:02:54.738Z,34.83
2023-11-30T16:05:30.269Z,60.63
2023-11-30T16:08:00.578Z,52.90
2023-11-30T16:10:30.814Z,33.70
2023-11-30T16:13:01.096Z,33.73
2023-11-30T16:15:31.378Z,25.00
2023-11-30T16:18:01.703Z,17.73
2023-11-30T16:20:34.564Z,18.77
2023-11-30T16:23:05.349Z,19.13
2023-11-30T16:25:35.607Z,29.43
2023-11-30T16:28:07.958Z,21.40
2023-11-30T16:30:38.242Z,18.20
2023-11-30T16:33:09.161Z,17.17
2023-11-30T16:35:42.140Z,16.83
2023-11-30T16:38:12.510Z,18.53
2023-11-30T16:40:43.769Z,22.03
2023-11-30T16:43:14.016Z,24.53
2023-11-30T16:45:44.582Z,23.40
2023-11-30T16:48:17.021Z,24.07
2023-11-30T16:50:52.035Z,27.03
2023-11-30T16:53:23.211Z,23.77
2023-11-30T16:55:54.350Z,28.77
2023-11-30T16:58:24.634Z,25.47
2023-11-30T17:00:54.881Z,24.27
2023-11-30T17:03:26.876Z,21.67
2023-11-30T17:05:59.953Z,25.43
2023-11-30T17:08:30.246Z,24.83
2023-11-30T17:11:01.895Z,23.47
2023-11-30T17:13:32.562Z,20.33
2023-11-30T17:16:04.136Z,18.53
2023-11-30T17:18:35.060Z,18.07
2023-11-30T17:21:08.423Z,17.40
2023-11-30T17:23:40.000Z,24.23
2023-11-30T17:26:11.936Z,19.50
2023-11-30T17:28:42.359Z,22.57
2023-11-30T17:31:13.588Z,30.70
2023-11-30T17:33:44.197Z,29.53
2023-11-30T17:36:19.090Z,39.77
2023-11-30T17:38:50.405Z,36.47
2023-11-30T17:41:20.661Z,25.30
2023-11-30T17:43:50.887Z,27.73
2023-11-30T17:46:21.226Z,25.20
2023-11-30T17:48:51.509Z,20.93
2023-11-30T17:51:24.384Z,22.53
2023-11-30T17:53:56.322Z,24.03
2023-11-30T17:56:27.020Z,21.07
2023-11-30T17:58:57.310Z,16.20
2023-11-30T18:01:28.718Z,15.37
2023-11-30T18:03:59.094Z,15.00
2023-11-30T18:06:34.630Z,15.90
2023-11-30T18:09:04.903Z,18.20
2023-11-30T18:11:38.112Z,17.27
2023-11-30T18:14:08.370Z,22.90
2023-11-30T18:16:38.620Z,28.30
2023-11-30T18:19:09.799Z,23.13
2023-11-30T18:21:42.728Z,22.13
2023-11-30T18:24:13.041Z,19.93
2023-11-30T18:26:43.336Z,19.47
2023-11-30T18:29:13.687Z,17.43
2023-11-30T18:31:44.133Z,17.90
2023-11-30T18:34:14.487Z,20.33
2023-11-30T18:36:47.594Z,18.63
2023-11-30T18:39:19.935Z,18.87
2023-11-30T18:41:52.429Z,18.40
2023-11-30T18:44:22.945Z,18.27
2023-11-30T18:46:53.300Z,18.23
2023-11-30T18:49:23.582Z,16.67
2023-11-30T18:51:56.614Z,17.13
2023-11-30T18:54:26.922Z,19.17
2023-11-30T18:56:57.191Z,19.90
2023-11-30T18:59:28.827Z,19.17
2023-11-30T19:01:59.408Z,21.00
2023-11-30T19:04:29.821Z,21.27
2023-11-30T19:07:02.705Z,20.90
2023-11-30T19:09:33.076Z,20.37
2023-11-30T19:12:03.426Z,18.73
2023-11-30T19:14:33.686Z,18.00
2023-11-30T19:17:04.418Z,16.70
2023-11-30T19:19:34.724Z,19.17
2023-11-30T19:22:08.048Z,17.77
2023-11-30T19:24:40.395Z,19.60
2023-11-30T19:27:10.690Z,19.27
2023-11-30T19:29:40.938Z,23.23
2023-11-30T19:32:11.521Z,20.97
2023-11-30T19:34:42.053Z,20.17
2023-11-30T19:37:14.946Z,17.93
2023-11-30T19:39:45.188Z,18.00
2023-11-30T19:42:15.505Z,18.00
2023-11-30T19:44:45.753Z,23.63
2023-11-30T19:47:16.759Z,26.60
2023-11-30T19:49:47.972Z,26.97
2023-11-30T19:52:20.807Z,25.70
2023-11-30T19:54:51.451Z,19.90
2023-11-30T19:57:21.972Z,18.43
2023-11-30T19:59:52.263Z,20.43
2023-11-30T20:02:22.704Z,21.37
2023-11-30T20:04:53.057Z,20.53
2023-11-30T20:07:25.955Z,21.87
2023-11-30T20:09:56.357Z,21.00
2023-11-30T20:12:26.718Z,21.83
2023-11-30T20:14:57.000Z,22.67
2023-11-30T20:17:27.317Z,23.13
2023-11-30T20:19:57.618Z,21.47
2023-11-30T20:22:32.702Z,25.57
2023-11-30T20:25:06.282Z,26.57
2023-11-30T20:27:38.489Z,28.07
2023-11-30T20:30:11.149Z,31.93
2023-11-30T20:32:42.505Z,26.70
2023-11-30T20:35:13.458Z,23.53
2023-11-30T20:37:54.984Z,22.33
2023-11-30T20:40:25.421Z,25.97
2023-11-30T20:42:55.941Z,24.47
2023-11-30T20:45:26.295Z,59.50
2023-11-30T20:47:56.716Z,26.17
2023-11-30T20:50:26.977Z,24.87
2023-11-30T20:53:01.915Z,27.00
2023-11-30T20:55:32.133Z,23.47
2023-11-30T20:58:02.474Z,25.90
2023-11-30T21:00:33.556Z,25.13
2023-11-30T21:03:04.267Z,25.67
2023-11-30T21:05:34.583Z,24.20
2023-11-30T21:08:08.905Z,23.57
2023-11-30T21:10:41.518Z,23.63
2023-11-30T21:13:11.738Z,24.43
2023-11-30T21:15:46.369Z,23.27
2023-11-30T21:18:16.683Z,25.43
2023-11-30T21:20:49.259Z,25.63
2023-11-30T21:23:22.154Z,25.43
2023-11-30T21:25:52.375Z,26.00
2023-11-30T21:28:22.588Z,24.73
2023-11-30T21:30:52.920Z,24.27
2023-11-30T21:33:25.652Z,25.33
2023-11-30T21:35:59.663Z,46.57
2023-11-30T21:38:32.514Z,28.83
2023-11-30T21:41:03.216Z,26.60
2023-11-30T21:43:33.487Z,26.73
2023-11-30T21:46:05.925Z,30.33
2023-11-30T21:48:36.311Z,33.00
2023-11-30T21:51:07.087Z,26.73
2023-11-30T21:53:39.881Z,26.70
2023-11-30T21:56:12.866Z,30.13
2023-11-30T21:58:43.136Z,26.73
2023-11-30T22:01:13.875Z,28.43
2023-11-30T22:03:44.582Z,36.83
2023-11-30T22:06:15.074Z,39.20
2023-11-30T22:08:52.180Z,29.40
2023-11-30T22:11:22.823Z,25.17
2023-11-30T22:13:53.190Z,26.70
2023-11-30T22:16:26.524Z,25.50
2023-11-30T22:19:03.510Z,26.43
2023-11-30T22:21:33.906Z,25.90
2023-11-30T22:24:07.327Z,28.50
2023-11-30T22:26:37.574Z,27.30
2023-11-30T22:29:07.901Z,27.87
2023-11-30T22:31:38.753Z,30.63
2023-11-30T22:34:09.148Z,34.07
2023-11-30T22:36:39.549Z,33.77
2023-11-30T22:39:12.488Z,34.10
2023-11-30T22:41:42.774Z,34.43
2023-11-30T22:44:13.236Z,35.43
2023-11-30T22:46:43.542Z,36.13
2023-11-30T22:49:17.588Z,36.47
2023-11-30T22:51:48.020Z,34.60
2023-11-30T22:54:20.955Z,33.70
2023-11-30T22:56:52.676Z,32.60
2023-11-30T22:59:22.998Z,34.87
2023-11-30T23:01:53.512Z,32.43
2023-11-30T23:04:24.347Z,34.43
2023-11-30T23:06:54.725Z,33.47
2023-11-30T23:09:27.579Z,34.37
2023-11-30T23:11:58.705Z,36.63
2023-11-30T23:14:29.138Z,37.13
2023-11-30T23:16:59.522Z,37.73
2023-11-30T23:19:32.772Z,37.60
2023-11-30T23:22:03.118Z,37.00
2023-11-30T23:24:36.347Z,36.20
2023-11-30T23:27:06.790Z,37.87
2023-11-30T23:29:38.021Z,36.93
2023-11-30T23:32:09.575Z,36.60
2023-11-30T23:34:40.216Z,35.67
2023-11-30T23:37:10.542Z,36.73
2023-11-30T23:39:43.477Z,36.23
2023-11-30T23:42:14.233Z,35.70
2023-11-30T23:44:48.183Z,37.00
2023-11-30T23:47:18.501Z,37.30
2023-11-30T23:49:48.841Z,36.73
2023-11-30T23:52:19.349Z,38.07
2023-11-30T23:54:52.312Z,35.33
2023-11-30T23:57:22.541Z,35.87
2023-11-30T23:59:56.597Z,35.97
